createdAt,value
2019-04-11T00:00:03.513Z,11.25
2019-04-11T00:03:33.753Z,11.38
2019-04-11T00:07:04.228Z,11.45
2019-04-11T00:10:35.475Z,11.48
2019-04-11T00:14:05.623Z,11.53
2019-04-11T00:17:36.284Z,11.61
2019-04-11T00:21:06.831Z,11.71
2019-04-11T00:24:36.941Z,11.78
2019-04-11T00:28:07.776Z,11.83
2019-04-11T00:31:38.962Z,11.83
2019-04-11T00:35:11.181Z,11.85
2019-04-11T00:38:42.264Z,11.89
2019-04-11T00:42:12.538Z,11.84
2019-04-11T00:45:43.541Z,11.73
2019-04-11T00:49:14.427Z,11.77
2019-04-11T00:52:45.441Z,11.82
2019-04-11T00:56:15.766Z,11.8
2019-04-11T00:59:46.784Z,11.76
2019-04-11T01:00:15.868Z,11.78
2019-04-11T01:03:45.928Z,11.87
2019-04-11T01:07:16.537Z,12
2019-04-11T01:10:47.703Z,12.08
2019-04-11T01:14:17.948Z,12.06
2019-04-11T01:17:48.122Z,12.13
2019-04-11T01:21:18.290Z,12.2
2019-04-11T01:24:48.479Z,12.28
2019-04-11T01:28:18.744Z,12.37
2019-04-11T01:31:52.156Z,12.39
2019-04-11T01:35:23.441Z,12.38
2019-04-11T01:38:56.921Z,12.41
2019-04-11T01:42:27.212Z,12.45
2019-04-11T01:45:57.979Z,12.41
2019-04-11T01:49:28.358Z,12.45
2019-04-11T01:52:58.483Z,12.38
2019-04-11T01:56:29.398Z,12.32
2019-04-11T01:59:59.687Z,12.24
2019-04-11T02:03:45.500Z,12.29
2019-04-11T02:07:15.720Z,12.29
2019-04-11T02:10:45.743Z,12.45
2019-04-11T02:14:17.830Z,12.39
2019-04-11T02:17:50.830Z,12.33
2019-04-11T02:21:21.921Z,12.3
2019-04-11T02:24:59.093Z,12.27
2019-04-11T02:28:29.196Z,12.28
2019-04-11T02:32:02.940Z,12.27
2019-04-11T02:35:37.374Z,12.27
2019-04-11T02:39:12.921Z,12.25
2019-04-11T02:42:47.580Z,12.3
2019-04-11T02:46:22.956Z,12.35
2019-04-11T02:49:59.986Z,12.3
2019-04-11T02:53:32.035Z,12.19
2019-04-11T02:57:03.220Z,12.1
2019-04-11T03:00:15.986Z,12.21
2019-04-11T03:03:47.672Z,12.02
2019-04-11T03:07:17.722Z,12.08
2019-04-11T03:10:49.137Z,11.96
2019-04-11T03:14:20.644Z,12.04
2019-04-11T03:17:54.996Z,12.1
2019-04-11T03:21:32.756Z,12.01
2019-04-11T03:25:08.465Z,12.05
2019-04-11T03:28:40.762Z,12.08
2019-04-11T03:36:50.590Z,12.17
2019-04-11T03:41:00.362Z,12.12
2019-04-11T03:44:47.289Z,12.12
2019-04-11T03:48:33.854Z,12.02
2019-04-11T03:52:12.492Z,11.89
2019-04-11T03:55:43.456Z,11.9
2019-04-11T03:59:16.337Z,11.88
2019-04-11T04:02:47.308Z,11.82
2019-04-11T04:06:19.173Z,11.88
2019-04-11T04:09:51.064Z,11.86
2019-04-11T04:13:22.785Z,11.72
2019-04-11T04:17:04.079Z,11.67
2019-04-11T04:20:51.276Z,11.67
2019-04-11T04:24:28.787Z,11.54
2019-04-11T04:28:03.077Z,11.48
2019-04-11T04:31:34.867Z,11.46
2019-04-11T04:35:07.209Z,11.46
2019-04-11T04:38:41.547Z,11.44
2019-04-11T04:42:23.509Z,11.47
2019-04-11T04:46:12.117Z,11.63
2019-04-11T04:49:54.321Z,11.77
2019-04-11T04:53:27.690Z,11.98
2019-04-11T04:56:58.449Z,12.07
2019-04-11T05:00:16.240Z,12.25
2019-04-11T05:03:46.853Z,12.32
2019-04-11T05:07:19.356Z,12.49
2019-04-11T05:10:51.136Z,12.5
2019-04-11T05:14:23.148Z,12.57
2019-04-11T05:17:53.455Z,12.65
2019-04-11T05:21:23.658Z,12.84
2019-04-11T05:24:55.528Z,12.9
2019-04-11T05:28:26.148Z,13.07
2019-04-11T05:31:56.732Z,13.13
2019-04-11T05:35:27.010Z,13.44
2019-04-11T05:38:58.313Z,13.59
2019-04-11T05:42:29.184Z,13.68
2019-04-11T05:46:00.259Z,13.91
2019-04-11T05:50:37.043Z,14.05
2019-04-11T05:54:08.826Z,14.23
2019-04-11T05:57:43.062Z,14.09
2019-04-11T06:01:20.343Z,13.98
2019-04-11T06:04:57.772Z,14.06
2019-04-11T06:08:30.259Z,14.01
2019-04-11T06:12:11.640Z,14.19
2019-04-11T06:15:44.365Z,14.19
2019-04-11T06:19:24.937Z,14.43
2019-04-11T06:23:03.329Z,14.29
2019-04-11T06:27:55.698Z,14.4
2019-04-11T06:33:49.583Z,14.69
2019-04-11T06:37:38.145Z,14.77
2019-04-11T06:41:16.684Z,14.74
2019-04-11T06:44:54.881Z,14.72
2019-04-11T06:48:35.853Z,14.73
2019-04-11T06:52:08.457Z,14.74
2019-04-11T06:55:48.927Z,14.7
2019-04-11T06:59:23.958Z,14.56
2019-04-11T07:00:16.965Z,14.55
2019-04-11T07:03:53.182Z,14.5
2019-04-11T07:07:27.075Z,14.51
2019-04-11T07:11:02.955Z,14.61
2019-04-11T07:14:40.189Z,14.57
2019-04-11T07:18:52.750Z,14.75
2019-04-11T07:25:08.956Z,15.07
2019-04-11T07:29:29.384Z,15.16
2019-04-11T07:33:14.206Z,15.42
2019-04-11T07:37:19.392Z,15.51
2019-04-11T07:41:00.669Z,15.64
2019-04-11T07:44:32.285Z,15.75
2019-04-11T07:48:10.741Z,15.69
2019-04-11T07:51:45.766Z,15.71
2019-04-11T07:55:19.209Z,15.05
2019-04-11T07:58:52.355Z,14.74
2019-04-11T08:03:55.784Z,14.45
2019-04-11T08:08:38.881Z,14.76
2019-04-11T08:12:12.910Z,14.94
2019-04-11T08:18:04.198Z,15.21
2019-04-11T08:23:54.806Z,16.07
2019-04-11T08:27:31.592Z,16.45
2019-04-11T08:31:19.967Z,16.79
2019-04-11T08:34:58.297Z,16.96
2019-04-11T08:38:30.425Z,17.46
2019-04-11T08:42:14.983Z,17.81
2019-04-11T08:45:50.677Z,18.18
2019-04-11T08:49:29.089Z,18.25
2019-04-11T08:53:13.184Z,18.44
2019-04-11T08:56:43.319Z,18.41
2019-04-11T09:01:22.136Z,18.42
2019-04-11T09:05:15.775Z,18.21
2019-04-11T09:09:11.172Z,18.33
2019-04-11T09:12:46.946Z,18.58
2019-04-11T09:17:24.576Z,19.07
2019-04-11T09:23:14.400Z,18.85
2019-04-11T09:27:58.554Z,18.9
2019-04-11T09:38:40.209Z,18.98
2019-04-11T09:42:32.798Z,19.2
2019-04-11T09:46:26.345Z,19.49
2019-04-11T09:49:57.963Z,19.59
2019-04-11T09:53:28.591Z,19.32
2019-04-11T09:57:18.536Z,19.49
2019-04-11T10:01:06.209Z,19.59
2019-04-11T10:04:36.501Z,19.47
2019-04-11T10:09:11.539Z,19.44
2019-04-11T10:13:21.528Z,19.37
2019-04-11T10:18:05.476Z,19.07
2019-04-11T10:21:35.966Z,18.62
2019-04-11T10:25:17.134Z,18.3
2019-04-11T10:29:02.251Z,17.99
2019-04-11T10:32:36.094Z,17.57
2019-04-11T10:36:21.108Z,16.68
2019-04-11T10:42:39.480Z,15.92
2019-04-11T10:46:21.538Z,15.86
2019-04-11T10:51:10.889Z,15.87
2019-04-11T10:54:42.040Z,16.2
2019-04-11T10:58:18.389Z,16.7
2019-04-11T11:00:22.984Z,16.95
2019-04-11T11:04:01.143Z,17.29
2019-04-11T11:07:32.954Z,17.5
2019-04-11T11:11:08.220Z,17.27
2019-04-11T11:15:13.619Z,17.08
2019-04-11T11:21:07.477Z,16.92
2019-04-11T11:25:17.781Z,16.69
2019-04-11T11:32:31.670Z,16.4
2019-04-11T11:36:22.038Z,16.41
2019-04-11T11:44:44.733Z,16.09
2019-04-11T11:48:31.168Z,15.88
2019-04-11T11:52:34.470Z,15.71
2019-04-11T11:56:05.473Z,15.61
2019-04-11T11:59:42.844Z,15.24
2019-04-11T12:03:29.372Z,14.73
2019-04-11T12:07:05.472Z,14.61
2019-04-11T12:10:44.110Z,14.64
2019-04-11T12:15:32.970Z,14.66
2019-04-11T12:19:16.209Z,14.82
2019-04-11T12:22:51.822Z,14.75
2019-04-11T12:26:22.692Z,14.85
2019-04-11T12:30:13.329Z,14.87
2019-04-11T12:34:30.308Z,14.97
2019-04-11T12:38:06.069Z,15
2019-04-11T12:41:52.285Z,14.94
2019-04-11T12:47:48.770Z,14.47
2019-04-11T12:54:00.612Z,14.15
2019-04-11T12:57:56.214Z,13.99
2019-04-11T13:00:29.467Z,13.96
2019-04-11T13:04:33.237Z,13.92
2019-04-11T13:09:16.774Z,13.94
2019-04-11T13:14:01.785Z,14.09
2019-04-11T13:17:35.124Z,14.17
2019-04-11T13:21:09.961Z,14.03
2019-04-11T13:24:46.995Z,14.07
2019-04-11T13:28:17.188Z,13.93
2019-04-11T13:32:55.706Z,13.69
2019-04-11T13:36:36.991Z,13.69
2019-04-11T13:41:45.915Z,13.48
2019-04-11T13:45:16.700Z,13.57
2019-04-11T13:49:55.654Z,13.67
2019-04-11T13:55:48.970Z,14.3
2019-04-11T14:01:40.235Z,14.49
2019-04-11T14:05:11.282Z,14.46
2019-04-11T14:08:51.538Z,14.33
2019-04-11T14:12:21.833Z,14.35
2019-04-11T14:15:55.490Z,14.11
2019-04-11T14:20:14.398Z,14.05
2019-04-11T14:23:58.364Z,14.47
2019-04-11T14:27:28.789Z,14.67
2019-04-11T14:31:08.786Z,14.72
2019-04-11T14:37:06.596Z,14.51
2019-04-11T14:44:03.220Z,14.21
2019-04-11T14:48:52.273Z,14.1
2019-04-11T14:52:32.902Z,14.09
2019-04-11T14:56:07.069Z,14.17
2019-04-11T14:59:41.698Z,14.02
2019-04-11T15:00:24.238Z,14.04
2019-04-11T15:04:31.611Z,14.02
2019-04-11T15:08:01.814Z,14.01
2019-04-11T15:11:50.649Z,14.03
2019-04-11T15:16:11.093Z,13.98
2019-04-11T15:19:43.025Z,13.92
2019-04-11T15:23:19.946Z,13.87
2019-04-11T15:29:45.941Z,13.61
2019-04-11T15:33:48.783Z,13.36
2019-04-11T15:37:30.439Z,13.26
2019-04-11T15:41:01.216Z,13.22
2019-04-11T15:46:51.762Z,12.98
2019-04-11T15:51:30.673Z,12.86
2019-04-11T15:58:48.817Z,12.7
2019-04-11T16:03:36.395Z,12.62
2019-04-11T16:07:54.752Z,12.65
2019-04-11T16:11:52.574Z,12.63
2019-04-11T16:15:23.289Z,12.69
2019-04-11T16:20:03.211Z,12.39
2019-04-11T16:23:49.744Z,12.15
2019-04-11T16:27:44.820Z,12.26
2019-04-11T16:31:15.059Z,12.42
2019-04-11T16:34:51.732Z,12.53
2019-04-11T16:38:25.569Z,12.64
2019-04-11T16:42:00.093Z,12.73
2019-04-11T16:45:54.613Z,12.74
2019-04-11T16:49:25.960Z,12.78
2019-04-11T16:52:56.995Z,12.76
2019-04-11T16:56:27.169Z,12.74
2019-04-11T16:59:58.356Z,12.71
2019-04-11T17:00:20.332Z,12.7
2019-04-11T17:03:54.846Z,12.71
2019-04-11T17:07:34.723Z,12.74
2019-04-11T17:11:08.606Z,12.73
2019-04-11T17:14:38.810Z,12.67
2019-04-11T17:18:09.018Z,12.48
2019-04-11T17:21:43.377Z,12.34
2019-04-11T17:25:13.816Z,12.33
2019-04-11T17:28:44.069Z,12.4
2019-04-11T17:32:14.334Z,12.39
2019-04-11T17:35:44.555Z,12.35
2019-04-11T17:39:14.882Z,12.42
2019-04-11T17:42:45.093Z,12.4
2019-04-11T17:46:15.323Z,12.42
2019-04-11T17:49:45.598Z,12.45
2019-04-11T17:53:15.856Z,12.49
2019-04-11T17:56:46.076Z,12.5
2019-04-11T18:00:29.513Z,12.57
2019-04-11T18:04:00.109Z,12.62
2019-04-11T18:07:30.229Z,12.72
2019-04-11T18:11:00.421Z,12.77
2019-04-11T18:14:31.629Z,12.9
2019-04-11T18:18:03.184Z,12.96
2019-04-11T18:21:37.150Z,13.03
2019-04-11T18:25:08.776Z,13.08
2019-04-11T18:28:39.028Z,13.11
2019-04-11T18:32:44.892Z,13.1
2019-04-11T18:36:15.283Z,13.13
2019-04-11T18:39:45.562Z,13.04
2019-04-11T18:43:16.427Z,12.93
2019-04-11T18:46:47.248Z,12.94
2019-04-11T18:50:17.544Z,12.98
2019-04-11T18:53:47.791Z,12.88
2019-04-11T18:57:17.861Z,12.87
2019-04-11T19:00:17.429Z,12.74
2019-04-11T19:03:48.671Z,12.58
2019-04-11T19:07:27.659Z,12.59
2019-04-11T19:10:58.475Z,12.52
2019-04-11T19:14:28.733Z,12.52
2019-04-11T19:18:06.270Z,12.52
2019-04-11T19:21:37.159Z,12.55
2019-04-11T19:25:11.827Z,12.51
2019-04-11T19:28:42.666Z,12.55
2019-04-11T19:32:12.820Z,12.51
2019-04-11T19:35:43.063Z,12.47
2019-04-11T19:39:14.527Z,12.31
2019-04-11T19:42:48.905Z,12.01
2019-04-11T19:46:20.377Z,11.91
2019-04-11T19:49:51.232Z,11.88
2019-04-11T19:53:21.295Z,11.67
2019-04-11T19:57:07.609Z,11.63
2019-04-11T20:00:37.731Z,11.61
2019-04-11T20:04:08.733Z,11.53
2019-04-11T20:07:38.824Z,11.55
2019-04-11T20:11:09.008Z,11.61
2019-04-11T20:14:39.107Z,11.63
2019-04-11T20:18:09.187Z,11.73
2019-04-11T20:21:39.270Z,11.7
2019-04-11T20:25:09.405Z,11.81
2019-04-11T20:28:39.459Z,11.87
2019-04-11T20:32:09.677Z,11.86
2019-04-11T20:35:40.091Z,11.73
2019-04-11T20:39:14.999Z,11.71
2019-04-11T20:42:45.904Z,11.78
2019-04-11T20:46:16.117Z,11.79
2019-04-11T20:49:48.859Z,11.76
2019-04-11T20:53:18.972Z,11.75
2019-04-11T20:56:48.985Z,11.65
2019-04-11T21:00:16.101Z,11.59
2019-04-11T21:03:46.084Z,11.54
2019-04-11T21:07:17.238Z,11.54
2019-04-11T21:10:47.326Z,11.61
2019-04-11T21:14:17.403Z,11.54
2019-04-11T21:17:47.392Z,11.53
2019-04-11T21:21:17.580Z,11.53
2019-04-11T21:24:47.681Z,11.48
2019-04-11T21:28:17.919Z,11.51
2019-04-11T21:31:48.149Z,11.55
2019-04-11T21:35:18.487Z,11.56
2019-04-11T21:38:48.480Z,11.52
2019-04-11T21:42:18.569Z,11.52
2019-04-11T21:45:48.647Z,11.49
2019-04-11T21:49:18.885Z,11.44
2019-04-11T21:52:49.024Z,11.44
2019-04-11T21:56:19.374Z,11.35
2019-04-11T21:59:51.538Z,11.34
2019-04-11T22:03:24.340Z,11.38
2019-04-11T22:06:55.055Z,11.42
2019-04-11T22:10:26.255Z,11.44
2019-04-11T22:13:56.340Z,11.47
2019-04-11T22:17:26.481Z,11.48
2019-04-11T22:20:56.566Z,11.44
2019-04-11T22:24:26.745Z,11.47
2019-04-11T22:27:56.759Z,11.46
2019-04-11T22:31:26.937Z,11.44
2019-04-11T22:34:59.071Z,11.48
2019-04-11T22:38:30.963Z,11.6
2019-04-11T22:42:01.601Z,11.67
2019-04-11T22:45:31.722Z,11.58
2019-04-11T22:49:01.722Z,11.55
2019-04-11T22:52:31.847Z,11.62
2019-04-11T22:56:01.926Z,11.67
2019-04-11T22:59:31.965Z,11.74
2019-04-11T23:00:15.884Z,11.73
2019-04-11T23:03:49.460Z,11.77
2019-04-11T23:07:19.540Z,11.62
2019-04-11T23:10:49.756Z,11.58
2019-04-11T23:14:19.884Z,11.52
2019-04-11T23:17:50.045Z,11.45
2019-04-11T23:21:20.163Z,11.48
2019-04-11T23:24:50.221Z,11.48
2019-04-11T23:28:20.379Z,11.44
2019-04-11T23:31:51.257Z,11.38
2019-04-11T23:35:21.797Z,11.3
2019-04-11T23:38:52.646Z,11.29
2019-04-11T23:42:23.582Z,11.26
2019-04-11T23:45:53.739Z,11.28
2019-04-11T23:49:25.207Z,11.26
2019-04-11T23:52:57.880Z,11.29
2019-04-11T23:56:30.524Z,11.27
